CDT,Max TemperatureF,Mean TemperatureF,Min TemperatureF,Max Dew PointF,MeanDew PointF,Min DewpointF,Max Humidity, Mean Humidity, Min Humidity, Max Sea Level PressureIn, Mean Sea Level PressureIn, Min Sea Level PressureIn, Max VisibilityMiles, Mean VisibilityMiles, Min VisibilityMiles, Max Wind SpeedMPH, Mean Wind SpeedMPH, Max Gust SpeedMPH,PrecipitationIn, CloudCover, Events, WindDirDegrees
2011-9-1,75,68,60,72,65,59,100,89,73,29.94,29.83,29.69,10,7,2,16,6,21,0.07,6,Rain-Thunderstorm,147
2011-9-2,71,66,62,68,58,48,100,74,49,29.91,29.82,29.68,10,8,0,14,5,26,0.01,5,Fog-Rain-Thunderstorm,307
2011-9-3,71,58,44,57,49,43,100,74,41,29.93,29.84,29.75,10,10,5,20,4,29,0.00,2,,234
2011-9-4,60,55,50,52,46,39,94,74,45,30.15,30.02,29.83,10,10,4,17,8,23,0.00,6,Rain,331
2011-9-5,64,48,32,45,37,30,100,72,39,30.24,30.19,30.11,10,7,0,8,1,,0.00,3,Fog,227
2011-9-6,71,53,35,48,43,34,100,67,41,30.19,30.16,30.14,10,10,10,12,4,16,0.00,1,,204
2011-9-7,78,60,42,54,48,41,93,67,34,30.29,30.25,30.21,10,10,10,8,2,,0.00,1,,336
2011-9-8,82,64,46,57,49,45,94,62,26,30.31,30.26,30.14,10,10,10,10,1,17,0.00,0,,338
2011-9-9,86,67,48,55,50,45,94,61,25,30.15,30.10,30.04,10,10,4,8,1,,0.00,0,,34
2011-9-10,84,65,46,54,49,45,100,61,29,30.10,30.06,29.95,10,10,10,9,1,17,0.00,0,,223
2011-9-11,82,70,57,57,51,39,88,57,21,29.95,29.90,29.87,10,10,10,15,6,22,0.00,0,,262
2011-9-12,80,64,48,57,50,41,93,57,42,29.89,29.70,29.52,10,10,10,25,8,39,0.00,2,,223
2011-9-13,64,52,39,46,41,36,100,72,37,29.92,29.88,29.81,10,10,7,22,8,30,0.07,3,Rain,270
2011-9-14,48,40,32,36,31,28,93,78,46,30.22,30.12,29.99,10,10,7,17,9,34,0.05,3,Rain,302
2011-9-15,53,38,24,36,27,21,100,69,30,30.40,30.34,30.28,10,10,4,10,3,,0.00,1,,281
2011-9-16,60,42,23,36,27,21,100,63,29,30.30,30.26,30.18,10,10,10,13,3,18,0.00,0,,204
2011-9-17,59,47,35,39,37,32,93,69,48,30.24,30.21,30.14,10,10,10,16,6,22,0.00,4,,167
2011-9-18,55,53,51,52,48,43,100,84,67,30.11,30.02,29.92,10,8,2,16,10,21,0.23,8,Rain,163
2011-9-19,66,52,39,52,44,36,100,70,32,29.94,29.91,29.88,10,8,0,15,4,24,0.00,2,Fog,260
2011-9-20,60,51,42,52,46,39,94,77,52,29.89,29.76,29.63,10,10,4,15,4,22,0.17,6,Rain,134
2011-9-21,53,48,44,52,48,43,100,92,88,29.82,29.66,29.59,10,8,2,16,3,24,0.22,8,Rain,345
2011-9-22,46,42,37,43,39,36,93,89,81,30.13,30.06,30.00,10,8,2,10,6,16,0.00,8,Rain,335
2011-9-23,53,48,42,45,43,41,100,85,67,30.16,30.13,30.08,10,9,2,6,1,,0.00,7,Rain,139
2011-9-24,55,42,30,45,39,28,100,89,67,30.12,30.09,30.04,10,6,0,5,1,,0.00,5,Fog,114
2011-9-25,60,46,32,46,40,30,100,80,55,30.10,30.06,30.03,10,8,0,13,2,,0.00,4,Fog,135
2011-9-26,69,50,32,46,41,30,100,72,40,30.04,30.01,29.94,10,10,2,10,2,,0.00,0,,26
2011-9-27,73,55,37,52,44,36,100,70,33,29.96,29.92,29.88,10,10,7,7,1,,0.00,0,,28
2011-9-28,77,57,37,52,44,36,100,68,34,29.86,29.80,29.71,10,10,0,7,1,,0.00,1,Fog,223
2011-9-29,59,54,48,50,44,27,94,74,29,29.95,29.70,29.59,10,10,2,17,7,33,0.20,4,Rain-Thunderstorm,317
2011-9-30,50,46,41,43,33,27,87,63,43,30.25,30.17,30.05,10,10,10,13,9,22,0.00,4,,352